Time;durP1;ratioP1;P1;durP2;ratioP2;P2;SDS_P1;SDS_P2;PMS_P1;PMS_P2;Temp;Humidity;BMP_temperature;BMP_pressure;BME280_temperature;BME280_humidity;BME280_pressure;Samples;Min_cycle;Max_cycle;Signal;HPM_P1;HPM_P2
2023/05/03 00:01:16;;;;;;;1.45;0.10;;;7.90;63.80;;;;;;4943676;28;20101;-86
2023/05/03 00:03:44;;;;;;;0.32;0.10;;;7.90;63.80;;;;;;4974377;28;20418;-86
2023/05/03 00:06:12;;;;;;;1.20;0.20;;;7.80;63.80;;;;;;4943314;28;20097;-86
2023/05/03 00:08:42;;;;;;;0.85;0.20;;;7.80;63.80;;;;;;4968376;28;20043;-86
2023/05/03 00:11:09;;;;;;;0.32;0.10;;;7.80;63.80;;;;;;4958622;28;20042;-86
2023/05/03 00:13:36;;;;;;;0.88;0.10;;;7.80;63.90;;;;;;4959464;28;20051;-86
2023/05/03 00:16:04;;;;;;;2.17;0.20;;;7.80;63.90;;;;;;4987125;28;20063;-85
2023/05/03 00:18:31;;;;;;;0.73;0.10;;;7.80;63.90;;;;;;4947356;28;20051;-86
2023/05/03 00:20:58;;;;;;;1.85;0.20;;;7.70;64.00;;;;;;4974917;28;20080;-86
2023/05/03 00:23:27;;;;;;;1.27;0.20;;;7.70;64.00;;;;;;4979869;28;20046;-86
2023/05/03 00:25:56;;;;;;;0.93;0.10;;;7.70;64.00;;;;;;4943229;28;20415;-87
2023/05/03 00:28:25;;;;;;;0.47;0.10;;;7.70;64.10;;;;;;4980887;28;20050;-87
2023/05/03 00:30:52;;;;;;;0.28;0.10;;;7.60;64.20;;;;;;5010603;28;20041;-87
2023/05/03 00:33:20;;;;;;;0.68;0.10;;;7.60;64.40;;;;;;4980038;28;20042;-86
2023/05/03 00:35:48;;;;;;;1.58;0.10;;;7.60;64.40;;;;;;4942807;28;20035;-86
2023/05/03 00:38:15;;;;;;;0.40;0.10;;;7.60;64.60;;;;;;4961464;28;20050;-86
2023/05/03 00:40:42;;;;;;;0.70;0.20;;;7.50;64.60;;;;;;4958184;28;20058;-86
2023/05/03 00:43:12;;;;;;;1.27;0.10;;;7.50;64.70;;;;;;4942653;28;20525;-86
2023/05/03 00:45:40;;;;;;;0.40;0.10;;;7.40;64.80;;;;;;4955557;28;20051;-86
2023/05/03 00:48:07;;;;;;;0.80;0.17;;;7.40;64.80;;;;;;4958244;28;20050;-87
2023/05/03 00:50:36;;;;;;;1.42;0.38;;;7.40;64.90;;;;;;4974102;28;20047;-86
2023/05/03 00:53:03;;;;;;;1.17;0.05;;;7.40;65.00;;;;;;4942516;28;20070;-86
2023/05/03 00:55:30;;;;;;;0.60;0.15;;;7.40;65.10;;;;;;4923229;29;20039;-83
2023/05/03 00:57:58;;;;;;;0.20;0.10;;;7.30;65.10;;;;;;4949408;28;20053;-82
2023/05/03 01:00:25;;;;;;;0.85;0.10;;;7.30;65.30;;;;;;4957147;28;20055;-82
2023/05/03 01:02:52;;;;;;;0.75;0.20;;;7.30;65.30;;;;;;4973326;28;20093;-82
2023/05/03 01:05:21;;;;;;;2.30;0.47;;;7.30;65.40;;;;;;4973119;28;20047;-82
2023/05/03 01:08:07;;;;;;;1.23;0.40;;;7.30;65.60;;;;;;4975981;28;20038;-82
2023/05/03 01:10:47;;;;;;;1.08;0.10;;;7.20;65.60;;;;;;4954913;28;20043;-82
2023/05/03 01:13:41;;;;;;;0.30;0.10;;;7.20;65.60;;;;;;4964890;28;20038;-82
2023/05/03 01:16:19;;;;;;;1.40;0.10;;;7.20;65.70;;;;;;4976166;28;20136;-82
2023/05/03 01:18:49;;;;;;;0.50;0.20;;;7.10;65.80;;;;;;4973026;28;20459;-82
2023/05/03 01:21:18;;;;;;;1.40;0.20;;;7.10;65.90;;;;;;4972968;28;20070;-82
2023/05/03 01:24:02;;;;;;;0.57;0.10;;;7.00;66.00;;;;;;4988895;28;20046;-82
2023/05/03 01:26:30;;;;;;;0.85;0.10;;;7.00;66.30;;;;;;4956764;28;20058;-82
2023/05/03 01:28:59;;;;;;;1.25;0.20;;;6.90;66.30;;;;;;4956829;28;20077;-82
2023/05/03 01:31:45;;;;;;;1.10;0.28;;;6.90;66.30;;;;;;4973101;28;20074;-82
2023/05/03 01:34:17;;;;;;;0.20;0.10;;;6.90;66.50;;;;;;4988927;28;20039;-82
2023/05/03 01:36:44;;;;;;;1.08;0.25;;;6.90;66.50;;;;;;4972807;28;20483;-81
2023/05/03 01:39:18;;;;;;;0.82;0.17;;;6.90;66.70;;;;;;4953459;28;20047;-84
2023/05/03 01:41:51;;;;;;;0.93;0.32;;;6.90;66.70;;;;;;4962958;28;20055;-83
2023/05/03 01:44:21;;;;;;;0.60;0.20;;;6.90;66.80;;;;;;4977473;28;20154;-83
2023/05/03 01:46:49;;;;;;;0.93;0.20;;;6.80;66.80;;;;;;4972637;28;20045;-84
2023/05/03 01:49:16;;;;;;;1.70;0.28;;;6.80;66.90;;;;;;4941354;28;20133;-83
2023/05/03 01:51:43;;;;;;;3.65;0.95;;;6.80;67.00;;;;;;4972147;28;20075;-82
2023/05/03 01:54:10;;;;;;;0.63;0.20;;;6.80;67.10;;;;;;4966243;28;20375;-82
2023/05/03 01:56:37;;;;;;;0.65;0.10;;;6.80;67.10;;;;;;4940685;28;20125;-82
2023/05/03 01:59:04;;;;;;;1.13;0.30;;;6.80;67.10;;;;;;4940648;28;20073;-82
2023/05/03 02:01:32;;;;;;;0.98;0.30;;;6.80;67.20;;;;;;4972523;28;20047;-82
2023/05/03 02:04:00;;;;;;;0.60;0.20;;;6.80;67.30;;;;;;4988648;28;20051;-82
2023/05/03 02:06:28;;;;;;;1.15;0.10;;;6.70;67.30;;;;;;4956516;28;20162;-82
2023/05/03 02:08:58;;;;;;;0.75;0.10;;;6.70;67.40;;;;;;4957319;28;20070;-82
2023/05/03 02:11:25;;;;;;;0.75;0.20;;;6.70;67.60;;;;;;4947903;28;20142;-82
2023/05/03 02:13:52;;;;;;;0.77;0.32;;;6.70;67.60;;;;;;4956131;28;20133;-81
2023/05/03 02:16:20;;;;;;;1.02;0.22;;;6.70;67.70;;;;;;4940751;28;20479;-82
2023/05/03 02:18:47;;;;;;;1.95;0.30;;;6.60;67.80;;;;;;4954508;28;20053;-81
2023/05/03 02:21:15;;;;;;;1.95;0.50;;;6.60;67.70;;;;;;4960336;28;20142;-82
2023/05/03 02:23:42;;;;;;;2.20;0.30;;;6.60;67.80;;;;;;4909253;28;20145;-82
2023/05/03 02:26:09;;;;;;;0.73;0.30;;;6.60;67.90;;;;;;4941762;28;20514;-82
2023/05/03 02:28:37;;;;;;;0.77;0.30;;;6.60;68.00;;;;;;4943725;28;20556;-82
2023/05/03 02:31:05;;;;;;;1.80;0.30;;;6.60;68.00;;;;;;4975887;28;20039;-82
2023/05/03 02:33:32;;;;;;;0.85;0.22;;;6.50;68.10;;;;;;4956302;28;20512;-82
2023/05/03 02:35:59;;;;;;;1.42;0.30;;;6.50;68.10;;;;;;4936865;28;20039;-81
2023/05/03 02:38:29;;;;;;;0.95;0.20;;;6.50;68.10;;;;;;4974562;28;20050;-83
2023/05/03 02:40:56;;;;;;;0.90;0.20;;;6.50;68.20;;;;;;4927884;28;20074;-82
2023/05/03 02:43:23;;;;;;;0.75;0.35;;;6.50;68.20;;;;;;4947304;28;20102;-81
2023/05/03 02:45:51;;;;;;;1.20;0.40;;;6.50;68.30;;;;;;4937480;28;20070;-82
2023/05/03 02:48:18;;;;;;;1.27;0.30;;;6.50;68.40;;;;;;4959149;28;20046;-81
2023/05/03 02:50:45;;;;;;;1.05;0.20;;;6.40;68.70;;;;;;4927482;28;20043;-82
2023/05/03 02:53:13;;;;;;;1.67;0.30;;;6.40;68.50;;;;;;4948359;28;20042;-82
2023/05/03 02:55:40;;;;;;;0.98;0.30;;;6.40;68.60;;;;;;4963397;28;20057;-82
2023/05/03 02:58:08;;;;;;;0.55;0.20;;;6.30;68.70;;;;;;4942829;28;20145;-81
2023/05/03 03:00:36;;;;;;;1.27;0.20;;;6.30;68.80;;;;;;4946778;28;20043;-82
2023/05/03 03:03:05;;;;;;;0.98;0.22;;;6.30;68.80;;;;;;4927433;28;20058;-81
2023/05/03 03:05:33;;;;;;;0.65;0.20;;;6.30;69.00;;;;;;4943292;28;20456;-81
2023/05/03 03:08:00;;;;;;;0.32;0.13;;;6.20;69.00;;;;;;4943136;28;20047;-82
2023/05/03 03:10:28;;;;;;;0.88;0.20;;;6.20;69.10;;;;;;4967279;28;20046;-82
2023/05/03 03:12:58;;;;;;;0.40;0.20;;;6.20;69.20;;;;;;4974383;28;20047;-82
2023/05/03 03:15:32;;;;;;;0.75;0.20;;;6.20;69.20;;;;;;4943602;28;20175;-81
2023/05/03 03:17:59;;;;;;;1.00;0.20;;;6.20;69.20;;;;;;4967273;28;20050;-82
2023/05/03 03:20:27;;;;;;;1.75;0.20;;;6.20;69.20;;;;;;4963182;28;20082;-81
2023/05/03 03:22:57;;;;;;;1.40;0.55;;;6.10;69.20;;;;;;4958502;28;20051;-82
2023/05/03 03:25:25;;;;;;;0.80;0.20;;;6.10;69.30;;;;;;4942730;28;20406;-81
2023/05/03 03:27:55;;;;;;;0.60;0.10;;;6.10;69.30;;;;;;4977038;28;20039;-81
2023/05/03 03:30:24;;;;;;;0.93;0.20;;;6.10;69.40;;;;;;4977803;28;20410;-82
2023/05/03 03:33:01;;;;;;;0.57;0.15;;;6.10;69.50;;;;;;4932955;28;20035;-81
2023/05/03 03:35:35;;;;;;;0.95;0.20;;;6.00;69.40;;;;;;4958332;28;20043;-81
2023/05/03 03:38:04;;;;;;;0.32;0.10;;;6.00;69.50;;;;;;4972984;28;20100;-81
2023/05/03 03:40:33;;;;;;;0.55;0.10;;;6.00;69.70;;;;;;4943050;28;20497;-81
2023/05/03 03:43:00;;;;;;;0.50;0.17;;;6.00;69.80;;;;;;4942356;28;20046;-82
2023/05/03 03:45:27;;;;;;;0.52;0.20;;;6.00;69.90;;;;;;4926537;28;20503;-81
2023/05/03 03:47:56;;;;;;;0.20;0.10;;;6.00;69.90;;;;;;4942164;28;20074;-81
2023/05/03 03:50:25;;;;;;;0.60;0.20;;;5.90;69.80;;;;;;4942257;28;20047;-82
2023/05/03 03:52:52;;;;;;;0.20;0.10;;;5.90;69.90;;;;;;4973928;28;20066;-82
2023/05/03 03:55:24;;;;;;;0.55;0.30;;;5.90;70.00;;;;;;4973098;28;20042;-82
2023/05/03 03:57:54;;;;;;;0.68;0.10;;;5.90;70.10;;;;;;4911690;28;20098;-81
2023/05/03 04:00:23;;;;;;;1.45;0.10;;;5.90;70.10;;;;;;4942751;28;20043;-81
2023/05/03 04:02:58;;;;;;;1.17;0.20;;;5.90;70.10;;;;;;4957716;28;20050;-82
2023/05/03 04:05:25;;;;;;;0.50;0.20;;;5.90;70.10;;;;;;4962871;28;20078;-82
2023/05/03 04:07:53;;;;;;;0.17;0.10;;;5.90;70.10;;;;;;4941924;28;20040;-82
2023/05/03 04:10:20;;;;;;;1.55;0.20;;;5.90;70.20;;;;;;4957447;28;20046;-82
2023/05/03 04:12:47;;;;;;;1.23;0.30;;;5.90;70.20;;;;;;4957773;28;20046;-82
2023/05/03 04:15:14;;;;;;;1.27;0.73;;;5.80;70.30;;;;;;4980771;28;20047;-81
2023/05/03 04:17:44;;;;;;;1.13;0.20;;;5.80;70.30;;;;;;4942325;28;20039;-81
2023/05/03 04:20:12;;;;;;;0.15;0.10;;;5.80;70.40;;;;;;4989508;28;20455;-81
2023/05/03 04:22:43;;;;;;;;;;;5.80;70.50;;;;;;4958404;28;20039;-81
2023/05/03 04:25:15;;;;;;;0.68;0.20;;;5.80;70.40;;;;;;4957717;28;19926;-82
2023/05/03 04:27:50;;;;;;;0.45;0.13;;;5.80;70.50;;;;;;4943779;28;20073;-82
2023/05/03 04:30:18;;;;;;;0.43;0.20;;;5.80;70.50;;;;;;4957357;28;20043;-81
2023/05/03 04:32:52;;;;;;;0.50;0.10;;;5.80;70.60;;;;;;4973268;28;20038;-82
2023/05/03 04:35:22;;;;;;;1.08;0.17;;;5.80;70.70;;;;;;4958045;28;20064;-82
2023/05/03 04:37:49;;;;;;;0.45;0.10;;;5.80;70.70;;;;;;4941373;28;20035;-81
2023/05/03 04:40:20;;;;;;;0.70;0.20;;;5.80;70.80;;;;;;4960985;28;20043;-82
2023/05/03 04:42:56;;;;;;;0.77;0.30;;;5.80;70.80;;;;;;4953076;28;20384;-82
2023/05/03 04:45:23;;;;;;;0.38;0.15;;;5.80;70.80;;;;;;4957180;28;20051;-81
2023/05/03 04:47:50;;;;;;;0.40;0.10;;;5.90;70.80;;;;;;4956967;28;20101;-82
2023/05/03 04:50:18;;;;;;;0.45;0.20;;;5.90;70.70;;;;;;4956746;28;20497;-81
2023/05/03 04:52:48;;;;;;;0.82;0.20;;;5.90;70.70;;;;;;4950033;28;20038;-81
2023/05/03 04:55:19;;;;;;;1.05;0.20;;;6.00;70.70;;;;;;4957576;28;20054;-81
2023/05/03 04:57:46;;;;;;;0.43;0.20;;;6.00;70.70;;;;;;4941652;28;20039;-81
2023/05/03 05:00:14;;;;;;;1.38;0.28;;;6.00;70.70;;;;;;4943096;28;20046;-81
2023/05/03 05:02:48;;;;;;;0.35;0.10;;;6.00;70.70;;;;;;4957677;28;20053;-82
2023/05/03 05:05:16;;;;;;;4.32;0.30;;;6.10;70.70;;;;;;4941277;28;20047;-81
2023/05/03 05:07:46;;;;;;;0.80;0.20;;;6.10;70.70;;;;;;4946989;28;20423;-82
2023/05/03 05:10:14;;;;;;;1.23;0.20;;;6.10;70.70;;;;;;4956963;28;20046;-82
2023/05/03 05:12:41;;;;;;;0.50;0.20;;;6.20;70.70;;;;;;4940917;28;20130;-81
2023/05/03 05:15:09;;;;;;;1.23;0.40;;;6.20;70.60;;;;;;4966436;28;20053;-81
2023/05/03 05:17:37;;;;;;;0.50;0.30;;;6.30;70.60;;;;;;4925695;28;20042;-81
2023/05/03 05:20:11;;;;;;;0.68;0.10;;;6.30;70.50;;;;;;4972786;28;20147;-81
2023/05/03 05:22:43;;;;;;;2.28;0.40;;;6.40;70.50;;;;;;4957971;28;20101;-81
2023/05/03 05:25:12;;;;;;;0.38;0.20;;;6.50;70.50;;;;;;4946057;28;20066;-81
2023/05/03 05:27:40;;;;;;;0.20;0.17;;;6.60;70.40;;;;;;4939314;28;20106;-81
2023/05/03 05:30:08;;;;;;;0.50;0.20;;;6.60;70.30;;;;;;4956433;28;20490;-82
2023/05/03 05:32:38;;;;;;;0.68;0.10;;;6.70;70.20;;;;;;4957361;28;20039;-81
2023/05/03 05:35:08;;;;;;;1.73;0.20;;;6.80;70.10;;;;;;4941614;28;20050;-82
2023/05/03 05:37:35;;;;;;;1.38;0.35;;;6.90;70.00;;;;;;4956487;28;20070;-82
2023/05/03 05:40:06;;;;;;;1.50;0.40;;;7.00;69.90;;;;;;4943745;28;20125;-83
2023/05/03 05:42:40;;;;;;;0.77;0.30;;;7.00;69.70;;;;;;4942286;28;20054;-81
2023/05/03 05:45:07;;;;;;;1.25;0.20;;;7.10;69.70;;;;;;4940620;28;20046;-82
2023/05/03 05:47:36;;;;;;;0.25;0.10;;;7.20;69.50;;;;;;4969642;28;20414;-81
2023/05/03 05:50:05;;;;;;;0.95;0.20;;;7.30;69.50;;;;;;4972393;28;20043;-81
2023/05/03 05:52:51;;;;;;;3.20;0.43;;;7.40;69.40;;;;;;4944761;28;20450;-81
2023/05/03 05:55:21;;;;;;;1.08;0.20;;;7.50;69.30;;;;;;4972682;28;20348;-81
2023/05/03 05:57:49;;;;;;;1.33;0.43;;;7.50;69.20;;;;;;4940714;28;20039;-81
2023/05/03 06:00:20;;;;;;;0.65;0.20;;;7.60;69.10;;;;;;4973067;28;20042;-81
2023/05/03 06:02:47;;;;;;;0.43;0.20;;;7.70;69.00;;;;;;4959985;28;20073;-82
2023/05/03 06:05:18;;;;;;;0.77;0.17;;;7.80;68.90;;;;;;4944817;28;20499;-81
2023/05/03 06:07:46;;;;;;;1.27;0.20;;;7.90;68.80;;;;;;4975896;28;20137;-81
2023/05/03 06:10:13;;;;;;;1.83;0.25;;;8.00;68.70;;;;;;4959715;28;20053;-81
2023/05/03 06:12:44;;;;;;;0.60;0.10;;;8.10;68.50;;;;;;4956645;28;20609;-81
2023/05/03 06:15:17;;;;;;;1.60;0.10;;;8.20;68.30;;;;;;4988269;28;20051;-81
2023/05/03 06:17:44;;;;;;;0.38;0.20;;;8.30;68.10;;;;;;4975626;28;20046;-81
2023/05/03 06:20:12;;;;;;;1.25;0.20;;;8.40;68.00;;;;;;4944071;28;20113;-82
2023/05/03 06:22:41;;;;;;;1.45;0.38;;;8.50;67.90;;;;;;4961208;28;20051;-82
2023/05/03 06:25:12;;;;;;;1.05;0.25;;;8.50;67.70;;;;;;4987841;28;20043;-81
2023/05/03 06:27:45;;;;;;;0.35;0.15;;;8.60;67.60;;;;;;4975783;28;20574;-81
2023/05/03 06:30:13;;;;;;;0.98;0.30;;;8.60;67.50;;;;;;4959798;28;20190;-82
2023/05/03 06:32:42;;;;;;;1.95;0.22;;;8.70;67.30;;;;;;4944018;28;20089;-82
2023/05/03 06:35:11;;;;;;;1.65;0.17;;;8.80;67.20;;;;;;4944078;28;20516;-82
2023/05/03 06:37:39;;;;;;;1.15;0.20;;;8.90;67.00;;;;;;4975615;28;20066;-82
2023/05/03 06:40:07;;;;;;;0.20;0.15;;;8.90;66.90;;;;;;4964186;28;20501;-82
2023/05/03 06:42:35;;;;;;;1.48;0.35;;;9.00;66.70;;;;;;4968011;28;20137;-81
2023/05/03 06:45:17;;;;;;;0.25;0.20;;;9.10;66.50;;;;;;4947255;28;20046;-82
2023/05/03 06:47:44;;;;;;;1.67;0.22;;;9.20;66.50;;;;;;4959274;28;20054;-82
2023/05/03 06:50:12;;;;;;;1.95;0.20;;;9.20;66.20;;;;;;4943455;28;20042;-82
2023/05/03 06:52:40;;;;;;;0.90;0.20;;;9.30;66.10;;;;;;4943691;28;20117;-81
2023/05/03 06:55:07;;;;;;;2.30;0.68;;;9.40;66.00;;;;;;4974976;28;20038;-81
2023/05/03 06:57:34;;;;;;;0.82;0.30;;;9.50;65.80;;;;;;4948771;28;20061;-82
2023/05/03 07:00:06;;;;;;;0.85;0.20;;;9.50;65.70;;;;;;4927299;28;20070;-82
2023/05/03 07:02:33;;;;;;;0.88;0.30;;;9.50;65.60;;;;;;4959101;28;20145;-81
2023/05/03 07:05:01;;;;;;;1.17;0.28;;;9.60;65.60;;;;;;4988586;28;20043;-82
2023/05/03 07:07:28;;;;;;;0.65;0.20;;;9.70;65.50;;;;;;4974805;28;20042;-82
2023/05/03 07:09:55;;;;;;;0.65;0.20;;;9.70;65.40;;;;;;4958777;28;20049;-82
2023/05/03 07:12:27;;;;;;;0.45;0.17;;;9.80;65.20;;;;;;4958475;28;20051;-82
2023/05/03 07:15:00;;;;;;;1.23;0.20;;;9.80;65.10;;;;;;4953994;28;20051;-82
2023/05/03 07:17:28;;;;;;;2.00;0.20;;;9.90;65.00;;;;;;4953935;28;20560;-82
2023/05/03 07:19:56;;;;;;;2.47;0.25;;;9.90;64.90;;;;;;4974780;28;20444;-81
2023/05/03 07:22:26;;;;;;;2.72;0.50;;;10.00;64.80;;;;;;4974575;28;20133;-82
2023/05/03 07:24:56;;;;;;;0.60;0.30;;;10.00;64.60;;;;;;4959227;28;20541;-82
2023/05/03 07:27:23;;;;;;;1.38;0.20;;;10.10;64.60;;;;;;4958680;28;20047;-81
2023/05/03 07:29:50;;;;;;;0.75;0.20;;;10.20;64.50;;;;;;4942513;28;20141;-81
2023/05/03 07:32:17;;;;;;;0.80;0.30;;;10.20;64.30;;;;;;4958808;28;20399;-81
2023/05/03 07:34:44;;;;;;;0.63;0.20;;;10.30;64.30;;;;;;4942679;28;20134;-82
2023/05/03 07:37:11;;;;;;;1.75;0.10;;;10.30;64.30;;;;;;4942759;28;20043;-81
2023/05/03 07:39:40;;;;;;;1.60;0.22;;;10.40;64.10;;;;;;4985753;28;20117;-82
2023/05/03 07:42:07;;;;;;;0.52;0.10;;;10.50;64.00;;;;;;4958228;28;20047;-82
2023/05/03 07:44:34;;;;;;;1.05;0.20;;;10.60;63.80;;;;;;4958519;28;20499;-82
2023/05/03 07:47:03;;;;;;;0.82;0.30;;;10.60;63.70;;;;;;4958458;28;20046;-82
2023/05/03 07:49:34;;;;;;;1.67;0.20;;;10.70;63.70;;;;;;4958284;28;20050;-82
2023/05/03 07:52:04;;;;;;;0.90;0.25;;;10.80;63.60;;;;;;4958777;28;20090;-83
2023/05/03 07:54:31;;;;;;;1.42;0.35;;;10.90;63.40;;;;;;4942576;28;20425;-82
2023/05/03 07:56:59;;;;;;;0.63;0.20;;;10.90;63.20;;;;;;4942169;28;20043;-83
2023/05/03 07:59:30;;;;;;;1.85;0.40;;;11.00;63.10;;;;;;4949382;28;20061;-83
2023/05/03 08:01:58;;;;;;;2.50;0.40;;;11.00;62.90;;;;;;4942236;28;20046;-82
2023/05/03 08:04:30;;;;;;;1.20;0.40;;;11.00;62.80;;;;;;4958326;28;20138;-85
2023/05/03 08:07:03;;;;;;;2.40;0.50;;;11.10;62.80;;;;;;4974233;28;20061;-84
2023/05/03 08:09:30;;;;;;;1.67;0.40;;;11.10;62.60;;;;;;4942602;28;20051;-85
2023/05/03 08:12:01;;;;;;;1.15;0.22;;;11.20;62.50;;;;;;4959898;28;20533;-85
2023/05/03 08:14:28;;;;;;;2.63;0.30;;;11.20;62.20;;;;;;4958362;28;20039;-84
2023/05/03 08:16:55;;;;;;;1.52;0.28;;;11.30;62.20;;;;;;4957915;28;20046;-83
2023/05/03 08:19:22;;;;;;;0.77;0.20;;;11.40;62.10;;;;;;4942062;28;20562;-83
2023/05/03 08:21:54;;;;;;;0.57;0.20;;;11.40;61.80;;;;;;4967462;28;20051;-84
2023/05/03 08:24:22;;;;;;;0.90;0.30;;;11.50;61.70;;;;;;4973389;28;20078;-84
2023/05/03 08:26:50;;;;;;;0.80;0.20;;;11.50;61.70;;;;;;4957908;28;20294;-85
2023/05/03 08:29:17;;;;;;;1.15;0.30;;;11.60;61.50;;;;;;4973628;28;20070;-85
2023/05/03 08:31:44;;;;;;;1.20;0.10;;;11.60;61.30;;;;;;4944409;28;20046;-84
2023/05/03 08:34:12;;;;;;;2.38;0.20;;;11.70;61.30;;;;;;4956274;28;20471;-84
2023/05/03 08:36:40;;;;;;;2.10;0.30;;;11.80;61.10;;;;;;4957680;28;20065;-84
2023/05/03 08:39:09;;;;;;;2.30;0.30;;;11.70;60.70;;;;;;4957391;28;20068;-84
2023/05/03 08:41:38;;;;;;;1.70;0.20;;;11.70;60.60;;;;;;4926405;28;20505;-85
2023/05/03 08:44:07;;;;;;;0.93;0.15;;;11.80;60.70;;;;;;4941936;28;20078;-85
2023/05/03 08:46:37;;;;;;;1.65;0.30;;;12.00;60.60;;;;;;4941872;28;20054;-85
2023/05/03 08:49:06;;;;;;;1.20;0.30;;;12.10;60.30;;;;;;4958006;28;20066;-85
2023/05/03 08:51:34;;;;;;;2.17;0.22;;;12.30;60.20;;;;;;4957768;28;20137;-84
2023/05/03 08:54:04;;;;;;;1.60;0.30;;;12.40;60.00;;;;;;4945705;28;20051;-85
2023/05/03 08:56:38;;;;;;;0.40;0.10;;;12.40;59.90;;;;;;4938332;28;20043;-85
2023/05/03 08:59:08;;;;;;;1.90;0.40;;;12.50;59.80;;;;;;4970205;28;20116;-85
2023/05/03 09:01:36;;;;;;;2.28;0.15;;;12.60;59.70;;;;;;4946910;28;20562;-84
2023/05/03 09:04:04;;;;;;;1.10;0.63;;;12.60;59.60;;;;;;4939068;28;20127;-85
2023/05/03 09:06:32;;;;;;;2.83;0.30;;;12.70;59.60;;;;;;4954356;28;20039;-85
2023/05/03 09:09:00;;;;;;;1.50;0.30;;;12.80;59.40;;;;;;4970828;28;20039;-85
2023/05/03 09:11:30;;;;;;;1.48;0.20;;;12.80;59.30;;;;;;4941481;28;20403;-85
2023/05/03 09:14:17;;;;;;;1.08;0.30;;;12.80;59.30;;;;;;4973137;28;20494;-85
2023/05/03 09:16:45;;;;;;;1.90;0.20;;;12.90;59.10;;;;;;4944767;28;20537;-85
2023/05/03 09:19:14;;;;;;;0.98;0.30;;;12.80;59.00;;;;;;4957020;28;20046;-84
2023/05/03 09:21:45;;;;;;;1.23;0.52;;;12.90;59.00;;;;;;4940945;28;20057;-84
2023/05/03 09:24:17;;;;;;;1.15;0.30;;;12.90;58.80;;;;;;4972266;28;20050;-83
2023/05/03 09:26:46;;;;;;;0.70;0.30;;;12.90;58.70;;;;;;4960801;28;20046;-84
2023/05/03 09:29:33;;;;;;;0.93;0.30;;;12.90;58.70;;;;;;4947351;28;20050;-84
2023/05/03 09:32:04;;;;;;;1.55;0.60;;;12.90;58.60;;;;;;4937516;28;20098;-84
2023/05/03 09:34:32;;;;;;;1.33;0.38;;;12.80;58.50;;;;;;4950629;28;20051;-84
2023/05/03 09:37:00;;;;;;;1.45;0.40;;;12.80;58.60;;;;;;4945203;28;20105;-84
2023/05/03 09:39:30;;;;;;;1.80;0.55;;;12.70;58.60;;;;;;4961028;28;20046;-84
2023/05/03 09:41:59;;;;;;;0.70;0.40;;;12.70;58.50;;;;;;4929898;28;20043;-85
2023/05/03 09:44:52;;;;;;;1.27;0.40;;;12.80;58.50;;;;;;4945306;28;20043;-84
2023/05/03 09:47:24;;;;;;;0.80;0.38;;;13.00;58.40;;;;;;4962537;28;20043;-84
2023/05/03 09:49:51;;;;;;;0.70;0.35;;;13.10;58.30;;;;;;4945585;28;20051;-84
2023/05/03 09:52:21;;;;;;;1.02;0.38;;;13.20;58.10;;;;;;4955784;28;20047;-83
2023/05/03 09:54:50;;;;;;;1.48;0.38;;;13.30;58.10;;;;;;4944490;28;20058;-88
2023/05/03 09:57:18;;;;;;;1.27;0.40;;;13.40;57.80;;;;;;4963521;28;20066;-83
2023/05/03 09:59:46;;;;;;;1.23;0.55;;;13.40;57.70;;;;;;4948761;28;20137;-85
2023/05/03 10:02:13;;;;;;;2.63;0.60;;;13.40;57.50;;;;;;4956341;28;20492;-83
2023/05/03 10:04:50;;;;;;;1.88;0.50;;;13.40;57.40;;;;;;4984581;28;20051;-82
2023/05/03 10:07:20;;;;;;;1.50;0.40;;;13.40;57.40;;;;;;4945011;28;20433;-85
2023/05/03 10:09:48;;;;;;;1.52;0.50;;;13.40;57.40;;;;;;4960455;28;20046;-85
2023/05/03 10:12:16;;;;;;;2.97;0.55;;;13.50;57.30;;;;;;4960715;28;20066;-85
2023/05/03 10:14:46;;;;;;;1.73;0.45;;;13.50;57.10;;;;;;4952150;28;20484;-84
2023/05/03 10:17:21;;;;;;;1.13;0.65;;;13.60;57.00;;;;;;4941216;29;20078;-84
2023/05/03 10:20:55;;;;;;;1.38;0.32;;;13.80;56.80;;;;;;4956974;29;20491;-82
2023/05/03 10:23:22;;;;;;;3.05;0.35;;;13.90;56.50;;;;;;4920338;29;20485;-83
2023/05/03 10:26:05;;;;;;;1.00;0.38;;;14.00;56.40;;;;;;4918471;29;20054;-83
2023/05/03 10:28:36;;;;;;;0.98;0.32;;;14.20;55.90;;;;;;4939919;29;20415;-82
2023/05/03 10:31:03;;;;;;;1.00;0.30;;;14.50;55.70;;;;;;4940471;29;20566;-83
2023/05/03 10:33:35;;;;;;;1.35;0.50;;;14.70;55.50;;;;;;4909603;29;20054;-84
2023/05/03 10:36:09;;;;;;;1.13;0.30;;;14.80;55.10;;;;;;4937095;29;20046;-84
2023/05/03 10:38:36;;;;;;;1.63;0.50;;;15.00;54.80;;;;;;4932103;29;20295;-83
2023/05/03 10:41:05;;;;;;;2.10;0.40;;;15.30;54.60;;;;;;4940519;29;20547;-84
2023/05/03 10:43:32;;;;;;;0.80;0.20;;;15.50;54.30;;;;;;4942095;28;20051;-83
2023/05/03 10:46:04;;;;;;;1.55;0.30;;;15.60;53.90;;;;;;4955244;28;20047;-83
2023/05/03 10:48:32;;;;;;;0.63;0.30;;;15.80;53.70;;;;;;4924123;29;20048;-83
2023/05/03 10:51:27;;;;;;;1.52;0.50;;;16.00;53.40;;;;;;4955624;28;20070;-84
2023/05/03 10:53:55;;;;;;;0.68;0.30;;;16.20;53.10;;;;;;4940418;29;20475;-85
2023/05/03 10:56:22;;;;;;;0.70;0.40;;;16.30;52.90;;;;;;4902975;29;20039;-84
2023/05/03 10:58:54;;;;;;;2.15;0.60;;;16.30;52.60;;;;;;4924691;29;20054;-84
2023/05/03 11:01:23;;;;;;;1.58;0.50;;;16.40;52.50;;;;;;4956316;29;20106;-84
2023/05/03 11:04:12;;;;;;;1.50;0.43;;;16.40;52.30;;;;;;4940423;29;20082;-83
2023/05/03 11:06:40;;;;;;;1.73;0.47;;;16.60;52.20;;;;;;4935762;29;20082;-85
2023/05/03 11:09:09;;;;;;;0.45;0.28;;;16.70;52.10;;;;;;4940049;29;20054;-85
2023/05/03 11:11:38;;;;;;;1.60;0.38;;;16.80;51.70;;;;;;4897485;29;20078;-85
2023/05/03 11:14:06;;;;;;;0.98;0.32;;;16.90;51.50;;;;;;4923182;29;20043;-86
2023/05/03 11:16:35;;;;;;;1.90;0.40;;;16.90;51.50;;;;;;4990652;28;20058;-85
2023/05/03 11:19:02;;;;;;;2.45;0.40;;;17.10;51.40;;;;;;4960378;28;20038;-83
2023/05/03 11:21:31;;;;;;;3.40;0.40;;;17.10;51.20;;;;;;4943399;28;20105;-83
2023/05/03 11:23:59;;;;;;;2.83;0.40;;;17.30;51.10;;;;;;4976247;28;20490;-86
2023/05/03 11:26:26;;;;;;;1.58;0.40;;;17.50;50.80;;;;;;4953891;28;20067;-88
2023/05/03 11:28:53;;;;;;;1.35;0.30;;;17.60;50.50;;;;;;4963575;28;20098;-87
2023/05/03 11:31:21;;;;;;;1.67;0.43;;;17.50;51.00;;;;;;4971058;28;20046;-84
2023/05/03 11:33:50;;;;;;;1.13;0.40;;;17.60;50.30;;;;;;4958833;28;20047;-82
2023/05/03 11:36:17;;;;;;;3.10;0.40;;;17.80;50.30;;;;;;4959752;28;20051;-82
2023/05/03 11:38:44;;;;;;;1.13;0.40;;;17.90;50.10;;;;;;4962995;28;20134;-82
2023/05/03 11:41:17;;;;;;;1.38;0.50;;;17.90;49.70;;;;;;4975653;28;20055;-84
2023/05/03 11:43:48;;;;;;;2.60;0.70;;;18.00;49.70;;;;;;4969658;28;20057;-84
2023/05/03 11:46:34;;;;;;;1.42;0.30;;;18.10;49.60;;;;;;4974432;28;20097;-84
2023/05/03 11:49:02;;;;;;;1.13;0.55;;;18.20;49.40;;;;;;4974742;28;20062;-82
2023/05/03 11:51:30;;;;;;;2.47;0.82;;;18.30;49.30;;;;;;4958608;28;20043;-84
2023/05/03 11:54:00;;;;;;;1.42;0.35;;;18.40;49.30;;;;;;4958376;28;20450;-85
2023/05/03 11:56:47;;;;;;;2.28;0.52;;;18.50;49.00;;;;;;4961169;28;20038;-84
2023/05/03 11:59:17;;;;;;;1.48;0.52;;;18.70;48.80;;;;;;4943872;28;20051;-82
2023/05/03 12:01:48;;;;;;;1.45;0.50;;;18.80;48.60;;;;;;4970439;28;20047;-81
2023/05/03 12:04:16;;;;;;;1.23;0.50;;;18.80;48.50;;;;;;4974360;28;20081;-87
2023/05/03 12:06:51;;;;;;;1.20;0.60;;;18.90;48.40;;;;;;4975582;28;20046;-89
2023/05/03 12:09:20;;;;;;;2.45;0.60;;;18.90;48.30;;;;;;4944254;28;20495;-87
2023/05/03 12:11:49;;;;;;;1.05;0.38;;;19.00;48.30;;;;;;4958907;28;20053;-86
2023/05/03 12:14:18;;;;;;;3.50;0.40;;;19.10;48.20;;;;;;4942843;28;20057;-87
2023/05/03 12:16:51;;;;;;;2.80;0.55;;;19.20;48.20;;;;;;4957755;28;20059;-87
2023/05/03 12:19:27;;;;;;;2.33;0.50;;;19.40;48.00;;;;;;4958827;28;20050;-89
2023/05/03 12:21:59;;;;;;;3.70;0.50;;;19.60;47.70;;;;;;4974816;28;20050;-89
2023/05/03 12:24:30;;;;;;;2.38;0.50;;;19.60;47.40;;;;;;4943539;28;20050;-87
2023/05/03 12:27:00;;;;;;;2.20;0.47;;;19.70;47.40;;;;;;4943421;28;20039;-87
2023/05/03 12:29:30;;;;;;;1.88;0.40;;;19.80;47.50;;;;;;4974734;28;20483;-87
2023/05/03 12:32:01;;;;;;;;;;;19.90;46.90;;;;;;4967616;28;20051;-89
2023/05/03 12:34:30;;;;;;;1.67;0.40;;;20.20;47.10;;;;;;4956309;28;19922;-84
2023/05/03 12:37:02;;;;;;;1.30;0.50;;;20.50;46.70;;;;;;4956601;28;20422;-84
2023/05/03 12:39:32;;;;;;;0.95;0.30;;;20.80;45.90;;;;;;4958102;28;20117;-89
2023/05/03 12:42:02;;;;;;;2.08;0.45;;;21.00;45.80;;;;;;4942461;28;20439;-88
2023/05/03 12:44:32;;;;;;;1.23;0.50;;;21.20;45.70;;;;;;4974868;28;20407;-90
2023/05/03 12:47:02;;;;;;;1.27;0.40;;;21.40;45.50;;;;;;4974499;28;20089;-89
2023/05/03 12:49:30;;;;;;;2.65;0.50;;;21.60;45.20;;;;;;4958615;28;20055;-90
2023/05/03 12:51:59;;;;;;;1.75;0.40;;;21.70;44.80;;;;;;4942968;28;20050;-90
2023/05/03 12:54:47;;;;;;;1.38;0.50;;;21.80;44.60;;;;;;4987324;28;20043;-85
2023/05/03 12:57:20;;;;;;;0.40;0.30;;;21.70;44.20;;;;;;4939323;28;20102;-88
2023/05/03 12:59:52;;;;;;;0.68;0.30;;;21.50;44.50;;;;;;4954967;28;20039;-89
2023/05/03 13:02:33;;;;;;;1.75;0.40;;;21.60;44.50;;;;;;4956222;28;20061;-90
2023/05/03 13:05:05;;;;;;;2.55;0.40;;;22.00;44.00;;;;;;4965634;28;20130;-88
2023/05/03 13:07:47;;;;;;;1.42;0.40;;;22.40;43.60;;;;;;4970004;28;20102;-82